sensor_id;sensor_type;location;lat;lon;timestamp;temperature;humidity
14737;DHT22;7459;53.590;10.062;2022-07-29T00:02:25;16.20;99.90
14737;DHT22;7459;53.590;10.062;2022-07-29T00:04:51;16.20;99.90
14737;DHT22;7459;53.590;10.062;2022-07-29T00:07:17;16.20;99.90
14737;DHT22;7459;53.590;10.062;2022-07-29T00:09:43;16.20;99.90
14737;DHT22;7459;53.590;10.062;2022-07-29T00:12:09;16.20;99.90
14737;DHT22;7459;53.590;10.062;2022-07-29T00:14:35;16.10;99.90
14737;DHT22;7459;53.590;10.062;2022-07-29T00:17:00;16.10;99.90
14737;DHT22;7459;53.590;10.062;2022-07-29T00:19:26;16.00;99.90
14737;DHT22;7459;53.590;10.062;2022-07-29T00:21:52;16.00;99.90
14737;DHT22;7459;53.590;10.062;2022-07-29T00:24:17;15.90;99.90
14737;DHT22;7459;53.590;10.062;2022-07-29T00:26:43;15.90;99.90
14737;DHT22;7459;53.590;10.062;2022-07-29T00:29:09;15.80;99.90
14737;DHT22;7459;53.590;10.062;2022-07-29T00:31:34;15.80;99.90
14737;DHT22;7459;53.590;10.062;2022-07-29T00:34:00;15.80;99.90
14737;DHT22;7459;53.590;10.062;2022-07-29T00:36:26;15.70;99.90
14737;DHT22;7459;53.590;10.062;2022-07-29T00:38:52;15.70;99.90
14737;DHT22;7459;53.590;10.062;2022-07-29T00:41:18;15.60;99.90
14737;DHT22;7459;53.590;10.062;2022-07-29T00:43:44;15.60;99.90
14737;DHT22;7459;53.590;10.062;2022-07-29T00:46:10;15.60;99.90
14737;DHT22;7459;53.590;10.062;2022-07-29T00:48:36;15.50;99.90
14737;DHT22;7459;53.590;10.062;2022-07-29T00:51:03;15.50;99.90
14737;DHT22;7459;53.590;10.062;2022-07-29T00:53:31;15.50;99.90
14737;DHT22;7459;53.590;10.062;2022-07-29T00:55:58;15.50;99.90
14737;DHT22;7459;53.590;10.062;2022-07-29T00:58:24;15.50;99.90
14737;DHT22;7459;53.590;10.062;2022-07-29T01:00:52;15.50;99.90
14737;DHT22;7459;53.590;10.062;2022-07-29T01:03:18;15.50;99.90
14737;DHT22;7459;53.590;10.062;2022-07-29T01:05:45;15.50;99.90
14737;DHT22;7459;53.590;10.062;2022-07-29T01:08:14;15.50;99.90
14737;DHT22;7459;53.590;10.062;2022-07-29T01:10:41;15.50;99.90
14737;DHT22;7459;53.590;10.062;2022-07-29T01:13:09;15.50;99.90
14737;DHT22;7459;53.590;10.062;2022-07-29T01:15:41;15.50;99.90
14737;DHT22;7459;53.590;10.062;2022-07-29T01:18:24;15.40;99.90
14737;DHT22;7459;53.590;10.062;2022-07-29T01:30:01;15.40;99.90
14737;DHT22;7459;53.590;10.062;2022-07-29T01:32:33;15.40;99.90
14737;DHT22;7459;53.590;10.062;2022-07-29T01:35:21;15.40;99.90
14737;DHT22;7459;53.590;10.062;2022-07-29T01:37:57;15.40;99.90
14737;DHT22;7459;53.590;10.062;2022-07-29T01:40:52;15.40;99.90
14737;DHT22;7459;53.590;10.062;2022-07-29T01:43:23;15.40;99.90
14737;DHT22;7459;53.590;10.062;2022-07-29T01:46:14;15.40;99.90
14737;DHT22;7459;53.590;10.062;2022-07-29T01:48:47;15.40;99.90
14737;DHT22;7459;53.590;10.062;2022-07-29T01:51:32;15.40;99.90
14737;DHT22;7459;53.590;10.062;2022-07-29T01:54:08;15.40;99.90
14737;DHT22;7459;53.590;10.062;2022-07-29T01:56:39;15.40;99.90
14737;DHT22;7459;53.590;10.062;2022-07-29T01:59:07;15.40;99.90
14737;DHT22;7459;53.590;10.062;2022-07-29T02:01:35;15.40;99.90
14737;DHT22;7459;53.590;10.062;2022-07-29T02:04:06;15.40;99.90
14737;DHT22;7459;53.590;10.062;2022-07-29T02:06:37;15.40;99.90
14737;DHT22;7459;53.590;10.062;2022-07-29T02:09:04;15.40;99.90
14737;DHT22;7459;53.590;10.062;2022-07-29T02:11:33;15.40;99.90
14737;DHT22;7459;53.590;10.062;2022-07-29T02:14:01;15.40;99.90
14737;DHT22;7459;53.590;10.062;2022-07-29T02:16:30;15.40;99.90
14737;DHT22;7459;53.590;10.062;2022-07-29T02:18:58;15.40;99.90
14737;DHT22;7459;53.590;10.062;2022-07-29T02:21:26;15.40;99.90
14737;DHT22;7459;53.590;10.062;2022-07-29T02:23:54;15.40;99.90
14737;DHT22;7459;53.590;10.062;2022-07-29T02:26:24;15.40;99.90
14737;DHT22;7459;53.590;10.062;2022-07-29T02:28:54;15.50;99.90
14737;DHT22;7459;53.590;10.062;2022-07-29T02:31:24;15.50;99.90
14737;DHT22;7459;53.590;10.062;2022-07-29T02:33:52;15.50;99.90
14737;DHT22;7459;53.590;10.062;2022-07-29T02:36:21;15.50;99.90
14737;DHT22;7459;53.590;10.062;2022-07-29T02:38:48;15.50;99.90
14737;DHT22;7459;53.590;10.062;2022-07-29T02:41:23;15.60;99.90
14737;DHT22;7459;53.590;10.062;2022-07-29T02:43:55;15.60;99.90
14737;DHT22;7459;53.590;10.062;2022-07-29T02:46:29;15.60;99.90
14737;DHT22;7459;53.590;10.062;2022-07-29T02:49:07;15.60;99.90
14737;DHT22;7459;53.590;10.062;2022-07-29T02:51:49;15.60;99.90
14737;DHT22;7459;53.590;10.062;2022-07-29T02:54:39;15.60;99.90
14737;DHT22;7459;53.590;10.062;2022-07-29T02:57:36;15.60;99.90
14737;DHT22;7459;53.590;10.062;2022-07-29T03:00:09;15.60;99.90
14737;DHT22;7459;53.590;10.062;2022-07-29T03:02:38;15.60;99.90
14737;DHT22;7459;53.590;10.062;2022-07-29T03:05:08;15.60;99.90
14737;DHT22;7459;53.590;10.062;2022-07-29T03:07:36;15.60;99.90
14737;DHT22;7459;53.590;10.062;2022-07-29T03:10:04;15.60;99.90
14737;DHT22;7459;53.590;10.062;2022-07-29T03:12:31;15.60;99.90
14737;DHT22;7459;53.590;10.062;2022-07-29T03:14:58;15.60;99.90
14737;DHT22;7459;53.590;10.062;2022-07-29T03:17:24;15.60;99.90
14737;DHT22;7459;53.590;10.062;2022-07-29T03:19:50;15.60;99.90
14737;DHT22;7459;53.590;10.062;2022-07-29T03:22:16;15.60;99.90
14737;DHT22;7459;53.590;10.062;2022-07-29T03:24:42;15.50;99.90
14737;DHT22;7459;53.590;10.062;2022-07-29T03:27:08;15.50;99.90
14737;DHT22;7459;53.590;10.062;2022-07-29T03:29:33;15.60;99.90
14737;DHT22;7459;53.590;10.062;2022-07-29T03:32:04;15.50;99.90
14737;DHT22;7459;53.590;10.062;2022-07-29T03:34:31;15.50;99.90
14737;DHT22;7459;53.590;10.062;2022-07-29T03:36:56;15.50;99.90
14737;DHT22;7459;53.590;10.062;2022-07-29T03:39:25;15.60;99.90
14737;DHT22;7459;53.590;10.062;2022-07-29T03:41:56;15.60;99.90
14737;DHT22;7459;53.590;10.062;2022-07-29T03:44:23;15.50;99.90
14737;DHT22;7459;53.590;10.062;2022-07-29T03:46:51;15.50;99.90
14737;DHT22;7459;53.590;10.062;2022-07-29T03:49:20;15.60;99.90
14737;DHT22;7459;53.590;10.062;2022-07-29T03:51:47;15.60;99.90
14737;DHT22;7459;53.590;10.062;2022-07-29T03:54:13;15.60;99.90
14737;DHT22;7459;53.590;10.062;2022-07-29T03:56:44;15.60;99.90
14737;DHT22;7459;53.590;10.062;2022-07-29T03:59:13;15.60;99.90
14737;DHT22;7459;53.590;10.062;2022-07-29T04:01:41;15.60;99.90
14737;DHT22;7459;53.590;10.062;2022-07-29T04:04:07;15.60;99.90
14737;DHT22;7459;53.590;10.062;2022-07-29T04:06:43;15.60;99.90
14737;DHT22;7459;53.590;10.062;2022-07-29T04:09:10;15.60;99.90
14737;DHT22;7459;53.590;10.062;2022-07-29T04:11:38;15.50;99.90
14737;DHT22;7459;53.590;10.062;2022-07-29T04:14:04;15.60;99.90
14737;DHT22;7459;53.590;10.062;2022-07-29T04:16:30;15.60;99.90
14737;DHT22;7459;53.590;10.062;2022-07-29T04:18:57;15.60;99.90
14737;DHT22;7459;53.590;10.062;2022-07-29T04:21:23;15.60;99.90
14737;DHT22;7459;53.590;10.062;2022-07-29T04:23:49;15.60;99.90
14737;DHT22;7459;53.590;10.062;2022-07-29T04:26:19;15.60;99.90
14737;DHT22;7459;53.590;10.062;2022-07-29T04:28:45;15.60;99.90
14737;DHT22;7459;53.590;10.062;2022-07-29T04:31:12;15.60;99.90
14737;DHT22;7459;53.590;10.062;2022-07-29T04:33:39;15.60;99.90
14737;DHT22;7459;53.590;10.062;2022-07-29T04:36:05;15.60;99.90
14737;DHT22;7459;53.590;10.062;2022-07-29T04:38:30;15.60;99.90
14737;DHT22;7459;53.590;10.062;2022-07-29T04:40:56;15.60;99.90
14737;DHT22;7459;53.590;10.062;2022-07-29T04:43:22;15.50;99.90
14737;DHT22;7459;53.590;10.062;2022-07-29T04:45:48;15.60;99.90
14737;DHT22;7459;53.590;10.062;2022-07-29T04:48:13;15.60;99.90
14737;DHT22;7459;53.590;10.062;2022-07-29T04:50:39;15.60;99.90
14737;DHT22;7459;53.590;10.062;2022-07-29T04:53:06;15.60;99.90
14737;DHT22;7459;53.590;10.062;2022-07-29T04:55:33;15.60;99.90
14737;DHT22;7459;53.590;10.062;2022-07-29T04:57:58;15.60;99.90
14737;DHT22;7459;53.590;10.062;2022-07-29T05:00:24;15.60;99.90
14737;DHT22;7459;53.590;10.062;2022-07-29T05:02:50;15.60;99.90
14737;DHT22;7459;53.590;10.062;2022-07-29T05:05:15;15.70;99.90
14737;DHT22;7459;53.590;10.062;2022-07-29T05:07:41;15.70;99.90
14737;DHT22;7459;53.590;10.062;2022-07-29T05:10:08;15.70;99.90
14737;DHT22;7459;53.590;10.062;2022-07-29T05:12:34;15.70;99.90
14737;DHT22;7459;53.590;10.062;2022-07-29T05:15:00;15.80;99.90
14737;DHT22;7459;53.590;10.062;2022-07-29T05:17:26;15.80;99.90
14737;DHT22;7459;53.590;10.062;2022-07-29T05:19:52;15.80;99.90
14737;DHT22;7459;53.590;10.062;2022-07-29T05:22:21;15.90;99.90
14737;DHT22;7459;53.590;10.062;2022-07-29T05:24:46;15.90;99.90
14737;DHT22;7459;53.590;10.062;2022-07-29T05:27:13;15.90;99.90
14737;DHT22;7459;53.590;10.062;2022-07-29T05:29:38;15.90;99.90
14737;DHT22;7459;53.590;10.062;2022-07-29T05:32:04;16.00;99.90
14737;DHT22;7459;53.590;10.062;2022-07-29T05:34:31;16.00;99.90
14737;DHT22;7459;53.590;10.062;2022-07-29T05:36:57;16.00;99.90
14737;DHT22;7459;53.590;10.062;2022-07-29T05:39:24;16.10;99.90
14737;DHT22;7459;53.590;10.062;2022-07-29T05:41:50;16.10;99.90
14737;DHT22;7459;53.590;10.062;2022-07-29T05:44:15;16.10;99.90
14737;DHT22;7459;53.590;10.062;2022-07-29T05:46:41;16.10;99.90
14737;DHT22;7459;53.590;10.062;2022-07-29T05:49:07;16.20;99.90
14737;DHT22;7459;53.590;10.062;2022-07-29T05:51:34;16.20;99.90
14737;DHT22;7459;53.590;10.062;2022-07-29T05:53:59;16.30;99.90
14737;DHT22;7459;53.590;10.062;2022-07-29T05:56:26;16.30;99.90
14737;DHT22;7459;53.590;10.062;2022-07-29T05:58:52;16.30;99.90
14737;DHT22;7459;53.590;10.062;2022-07-29T06:01:18;16.30;99.90
14737;DHT22;7459;53.590;10.062;2022-07-29T06:03:43;16.40;99.90
14737;DHT22;7459;53.590;10.062;2022-07-29T06:06:09;16.40;99.90
14737;DHT22;7459;53.590;10.062;2022-07-29T06:08:36;16.50;99.90
14737;DHT22;7459;53.590;10.062;2022-07-29T06:11:03;16.50;99.90
14737;DHT22;7459;53.590;10.062;2022-07-29T06:13:29;16.50;99.90
14737;DHT22;7459;53.590;10.062;2022-07-29T06:15:55;16.60;99.90
14737;DHT22;7459;53.590;10.062;2022-07-29T06:18:21;16.60;99.90
14737;DHT22;7459;53.590;10.062;2022-07-29T06:20:52;16.60;99.90
14737;DHT22;7459;53.590;10.062;2022-07-29T06:23:19;16.70;99.90
14737;DHT22;7459;53.590;10.062;2022-07-29T06:25:45;16.70;99.90
14737;DHT22;7459;53.590;10.062;2022-07-29T06:28:11;16.80;99.90
14737;DHT22;7459;53.590;10.062;2022-07-29T06:30:37;16.80;99.90
14737;DHT22;7459;53.590;10.062;2022-07-29T06:33:04;16.80;99.90
14737;DHT22;7459;53.590;10.062;2022-07-29T06:35:30;16.90;99.90
14737;DHT22;7459;53.590;10.062;2022-07-29T06:37:59;16.90;99.90
14737;DHT22;7459;53.590;10.062;2022-07-29T06:40:24;17.00;99.90
14737;DHT22;7459;53.590;10.062;2022-07-29T06:43:08;17.00;99.90
14737;DHT22;7459;53.590;10.062;2022-07-29T06:45:34;17.00;99.90
14737;DHT22;7459;53.590;10.062;2022-07-29T06:48:00;17.10;99.90
14737;DHT22;7459;53.590;10.062;2022-07-29T06:50:26;17.10;99.90
14737;DHT22;7459;53.590;10.062;2022-07-29T06:52:51;17.10;99.90
14737;DHT22;7459;53.590;10.062;2022-07-29T06:55:17;17.20;99.90
14737;DHT22;7459;53.590;10.062;2022-07-29T06:57:45;17.20;99.90
14737;DHT22;7459;53.590;10.062;2022-07-29T07:00:12;17.20;99.90
14737;DHT22;7459;53.590;10.062;2022-07-29T07:02:38;17.30;99.90
14737;DHT22;7459;53.590;10.062;2022-07-29T07:05:04;17.30;99.90
14737;DHT22;7459;53.590;10.062;2022-07-29T07:07:31;17.30;99.90
14737;DHT22;7459;53.590;10.062;2022-07-29T07:09:56;17.40;99.90
14737;DHT22;7459;53.590;10.062;2022-07-29T07:12:22;17.40;99.90
14737;DHT22;7459;53.590;10.062;2022-07-29T07:14:48;17.40;99.90
14737;DHT22;7459;53.590;10.062;2022-07-29T07:17:13;17.40;99.90
14737;DHT22;7459;53.590;10.062;2022-07-29T07:19:39;17.40;99.90
14737;DHT22;7459;53.590;10.062;2022-07-29T07:22:05;17.50;99.90
14737;DHT22;7459;53.590;10.062;2022-07-29T07:24:30;17.50;99.90
14737;DHT22;7459;53.590;10.062;2022-07-29T07:26:56;17.50;99.90
14737;DHT22;7459;53.590;10.062;2022-07-29T07:29:22;17.60;99.90
14737;DHT22;7459;53.590;10.062;2022-07-29T07:31:48;17.60;99.90
14737;DHT22;7459;53.590;10.062;2022-07-29T07:34:13;17.60;99.90
14737;DHT22;7459;53.590;10.062;2022-07-29T07:36:39;17.60;99.90
14737;DHT22;7459;53.590;10.062;2022-07-29T07:39:05;17.60;99.90
14737;DHT22;7459;53.590;10.062;2022-07-29T07:41:31;17.70;99.90
14737;DHT22;7459;53.590;10.062;2022-07-29T07:43:56;17.70;99.90
14737;DHT22;7459;53.590;10.062;2022-07-29T07:46:22;17.70;99.90
14737;DHT22;7459;53.590;10.062;2022-07-29T07:48:48;17.70;99.90
14737;DHT22;7459;53.590;10.062;2022-07-29T07:51:13;17.70;99.90
14737;DHT22;7459;53.590;10.062;2022-07-29T07:53:39;17.70;99.90
14737;DHT22;7459;53.590;10.062;2022-07-29T07:56:05;17.80;99.90
14737;DHT22;7459;53.590;10.062;2022-07-29T07:58:32;17.80;99.90
14737;DHT22;7459;53.590;10.062;2022-07-29T08:00:58;17.80;99.90
14737;DHT22;7459;53.590;10.062;2022-07-29T08:03:23;17.80;99.90
14737;DHT22;7459;53.590;10.062;2022-07-29T08:05:49;17.90;99.90
14737;DHT22;7459;53.590;10.062;2022-07-29T08:08:17;17.90;99.90
14737;DHT22;7459;53.590;10.062;2022-07-29T08:10:43;18.00;99.90
14737;DHT22;7459;53.590;10.062;2022-07-29T08:13:18;18.00;99.90
14737;DHT22;7459;53.590;10.062;2022-07-29T08:15:45;18.00;99.90
14737;DHT22;7459;53.590;10.062;2022-07-29T08:18:12;18.10;99.90
14737;DHT22;7459;53.590;10.062;2022-07-29T08:20:38;18.10;99.90
14737;DHT22;7459;53.590;10.062;2022-07-29T08:23:06;18.20;99.90
14737;DHT22;7459;53.590;10.062;2022-07-29T08:25:35;18.30;99.90
14737;DHT22;7459;53.590;10.062;2022-07-29T08:28:02;18.30;99.90
14737;DHT22;7459;53.590;10.062;2022-07-29T08:30:27;18.30;99.90
14737;DHT22;7459;53.590;10.062;2022-07-29T08:32:53;18.40;99.90
14737;DHT22;7459;53.590;10.062;2022-07-29T08:35:20;18.50;99.90
14737;DHT22;7459;53.590;10.062;2022-07-29T08:37:47;18.50;99.90
14737;DHT22;7459;53.590;10.062;2022-07-29T08:40:13;18.60;99.90
14737;DHT22;7459;53.590;10.062;2022-07-29T08:42:40;18.60;99.90
14737;DHT22;7459;53.590;10.062;2022-07-29T08:45:06;18.70;99.90
14737;DHT22;7459;53.590;10.062;2022-07-29T08:47:33;18.80;99.90
14737;DHT22;7459;53.590;10.062;2022-07-29T08:50:01;18.90;99.90
14737;DHT22;7459;53.590;10.062;2022-07-29T08:52:28;18.90;99.90
14737;DHT22;7459;53.590;10.062;2022-07-29T08:54:56;19.00;99.90
14737;DHT22;7459;53.590;10.062;2022-07-29T08:57:23;19.00;99.90
14737;DHT22;7459;53.590;10.062;2022-07-29T08:59:50;19.10;99.90
14737;DHT22;7459;53.590;10.062;2022-07-29T09:02:22;19.20;99.90
14737;DHT22;7459;53.590;10.062;2022-07-29T09:04:48;19.20;99.90
14737;DHT22;7459;53.590;10.062;2022-07-29T09:07:16;19.20;99.90
14737;DHT22;7459;53.590;10.062;2022-07-29T09:09:43;19.20;99.90
14737;DHT22;7459;53.590;10.062;2022-07-29T09:12:10;19.30;99.90
14737;DHT22;7459;53.590;10.062;2022-07-29T09:14:40;19.30;99.90
14737;DHT22;7459;53.590;10.062;2022-07-29T09:17:07;19.30;99.90
14737;DHT22;7459;53.590;10.062;2022-07-29T09:19:35;19.40;99.90
14737;DHT22;7459;53.590;10.062;2022-07-29T09:22:04;19.50;99.90
14737;DHT22;7459;53.590;10.062;2022-07-29T09:24:40;19.50;99.90
14737;DHT22;7459;53.590;10.062;2022-07-29T09:27:10;19.60;99.90
14737;DHT22;7459;53.590;10.062;2022-07-29T09:29:37;19.70;99.90
14737;DHT22;7459;53.590;10.062;2022-07-29T09:32:08;19.70;99.90
14737;DHT22;7459;53.590;10.062;2022-07-29T09:34:35;19.70;99.90
14737;DHT22;7459;53.590;10.062;2022-07-29T09:37:00;19.80;99.90
14737;DHT22;7459;53.590;10.062;2022-07-29T09:39:31;19.80;99.90
14737;DHT22;7459;53.590;10.062;2022-07-29T09:42:01;19.80;99.90
14737;DHT22;7459;53.590;10.062;2022-07-29T09:44:43;19.80;99.90
14737;DHT22;7459;53.590;10.062;2022-07-29T09:47:14;19.90;99.90
14737;DHT22;7459;53.590;10.062;2022-07-29T09:49:57;19.90;99.90
14737;DHT22;7459;53.590;10.062;2022-07-29T09:52:25;19.80;99.90
14737;DHT22;7459;53.590;10.062;2022-07-29T09:54:52;19.80;99.90
14737;DHT22;7459;53.590;10.062;2022-07-29T09:57:37;19.80;99.90
14737;DHT22;7459;53.590;10.062;2022-07-29T10:02:35;19.90;99.90
14737;DHT22;7459;53.590;10.062;2022-07-29T10:05:04;19.90;99.90
14737;DHT22;7459;53.590;10.062;2022-07-29T10:07:51;19.90;99.90
14737;DHT22;7459;53.590;10.062;2022-07-29T10:10:44;19.90;99.90
14737;DHT22;7459;53.590;10.062;2022-07-29T10:13:12;19.90;99.90
14737;DHT22;7459;53.590;10.062;2022-07-29T10:15:41;20.00;99.90
14737;DHT22;7459;53.590;10.062;2022-07-29T10:18:10;20.00;99.90
14737;DHT22;7459;53.590;10.062;2022-07-29T10:20:38;20.10;99.90
14737;DHT22;7459;53.590;10.062;2022-07-29T10:23:04;20.10;99.90
14737;DHT22;7459;53.590;10.062;2022-07-29T10:25:30;20.20;99.90
14737;DHT22;7459;53.590;10.062;2022-07-29T10:27:57;20.20;99.90
14737;DHT22;7459;53.590;10.062;2022-07-29T10:30:25;20.30;99.90
14737;DHT22;7459;53.590;10.062;2022-07-29T10:32:59;20.30;99.90
14737;DHT22;7459;53.590;10.062;2022-07-29T10:44:21;20.40;99.90
14737;DHT22;7459;53.590;10.062;2022-07-29T10:46:50;20.40;99.90
14737;DHT22;7459;53.590;10.062;2022-07-29T10:49:19;20.40;99.90
14737;DHT22;7459;53.590;10.062;2022-07-29T10:51:56;20.40;99.90
14737;DHT22;7459;53.590;10.062;2022-07-29T10:54:41;20.40;99.90
14737;DHT22;7459;53.590;10.062;2022-07-29T10:57:21;20.40;99.90
14737;DHT22;7459;53.590;10.062;2022-07-29T11:05:07;20.50;99.90
14737;DHT22;7459;53.590;10.062;2022-07-29T11:07:34;20.50;99.90
14737;DHT22;7459;53.590;10.062;2022-07-29T11:15:14;20.60;99.90
14737;DHT22;7459;53.590;10.062;2022-07-29T11:20:45;20.70;99.90
14737;DHT22;7459;53.590;10.062;2022-07-29T11:23:28;20.80;99.90
14737;DHT22;7459;53.590;10.062;2022-07-29T11:28:48;21.00;99.90
14737;DHT22;7459;53.590;10.062;2022-07-29T11:31:16;21.10;99.90
14737;DHT22;7459;53.590;10.062;2022-07-29T11:33:45;21.20;99.90
14737;DHT22;7459;53.590;10.062;2022-07-29T11:36:12;21.30;99.90
14737;DHT22;7459;53.590;10.062;2022-07-29T11:38:40;21.40;99.90
14737;DHT22;7459;53.590;10.062;2022-07-29T11:43:58;21.60;99.90
14737;DHT22;7459;53.590;10.062;2022-07-29T11:46:49;21.70;99.90
14737;DHT22;7459;53.590;10.062;2022-07-29T11:49:24;21.70;99.90
14737;DHT22;7459;53.590;10.062;2022-07-29T11:51:52;21.80;99.90
14737;DHT22;7459;53.590;10.062;2022-07-29T11:54:24;21.80;99.90
14737;DHT22;7459;53.590;10.062;2022-07-29T11:56:52;21.80;99.90
14737;DHT22;7459;53.590;10.062;2022-07-29T11:59:19;21.90;99.90
14737;DHT22;7459;53.590;10.062;2022-07-29T12:01:53;21.90;99.90
14737;DHT22;7459;53.590;10.062;2022-07-29T12:04:19;21.90;99.90
14737;DHT22;7459;53.590;10.062;2022-07-29T12:06:55;21.90;99.90
14737;DHT22;7459;53.590;10.062;2022-07-29T12:09:22;21.90;99.90
14737;DHT22;7459;53.590;10.062;2022-07-29T12:11:58;21.90;99.90
14737;DHT22;7459;53.590;10.062;2022-07-29T12:14:29;21.90;99.90
14737;DHT22;7459;53.590;10.062;2022-07-29T12:16:56;22.00;99.90
14737;DHT22;7459;53.590;10.062;2022-07-29T12:19:22;22.10;99.90
14737;DHT22;7459;53.590;10.062;2022-07-29T12:21:52;22.20;99.90
14737;DHT22;7459;53.590;10.062;2022-07-29T12:24:20;22.40;99.90
14737;DHT22;7459;53.590;10.062;2022-07-29T12:26:57;22.60;99.90
14737;DHT22;7459;53.590;10.062;2022-07-29T12:29:24;22.70;99.90
14737;DHT22;7459;53.590;10.062;2022-07-29T12:31:53;22.90;99.90
14737;DHT22;7459;53.590;10.062;2022-07-29T12:34:22;23.10;99.90
14737;DHT22;7459;53.590;10.062;2022-07-29T12:36:49;23.20;99.90
14737;DHT22;7459;53.590;10.062;2022-07-29T12:39:17;23.30;99.90
14737;DHT22;7459;53.590;10.062;2022-07-29T12:41:43;23.40;99.90
14737;DHT22;7459;53.590;10.062;2022-07-29T12:44:10;23.50;99.90
14737;DHT22;7459;53.590;10.062;2022-07-29T12:46:36;23.60;99.90
14737;DHT22;7459;53.590;10.062;2022-07-29T12:49:02;23.70;99.60
14737;DHT22;7459;53.590;10.062;2022-07-29T12:51:35;23.80;99.70
14737;DHT22;7459;53.590;10.062;2022-07-29T12:54:07;23.90;99.10
14737;DHT22;7459;53.590;10.062;2022-07-29T12:56:36;24.00;99.30
14737;DHT22;7459;53.590;10.062;2022-07-29T12:59:16;24.10;99.10
14737;DHT22;7459;53.590;10.062;2022-07-29T13:01:44;24.00;99.00
14737;DHT22;7459;53.590;10.062;2022-07-29T13:04:28;24.00;98.60
14737;DHT22;7459;53.590;10.062;2022-07-29T13:07:02;24.00;98.40
14737;DHT22;7459;53.590;10.062;2022-07-29T13:09:40;23.90;97.90
14737;DHT22;7459;53.590;10.062;2022-07-29T13:12:09;23.90;97.50
14737;DHT22;7459;53.590;10.062;2022-07-29T13:14:38;23.90;97.80
14737;DHT22;7459;53.590;10.062;2022-07-29T13:17:14;24.10;99.60
14737;DHT22;7459;53.590;10.062;2022-07-29T13:19:51;24.30;99.90
14737;DHT22;7459;53.590;10.062;2022-07-29T13:22:21;24.40;99.90
14737;DHT22;7459;53.590;10.062;2022-07-29T13:27:18;24.60;99.90
14737;DHT22;7459;53.590;10.062;2022-07-29T13:29:46;24.70;99.90
14737;DHT22;7459;53.590;10.062;2022-07-29T13:32:13;24.80;99.90
14737;DHT22;7459;53.590;10.062;2022-07-29T13:34:39;24.90;99.90
14737;DHT22;7459;53.590;10.062;2022-07-29T13:37:05;24.90;99.90
14737;DHT22;7459;53.590;10.062;2022-07-29T13:39:31;24.90;99.90
14737;DHT22;7459;53.590;10.062;2022-07-29T13:41:57;25.00;99.90
14737;DHT22;7459;53.590;10.062;2022-07-29T13:44:23;25.10;99.90
14737;DHT22;7459;53.590;10.062;2022-07-29T13:46:48;25.10;99.90
14737;DHT22;7459;53.590;10.062;2022-07-29T13:49:15;25.00;99.90
14737;DHT22;7459;53.590;10.062;2022-07-29T13:51:40;24.90;99.90
14737;DHT22;7459;53.590;10.062;2022-07-29T13:54:06;24.70;99.90
14737;DHT22;7459;53.590;10.062;2022-07-29T13:56:32;24.50;99.90
14737;DHT22;7459;53.590;10.062;2022-07-29T13:58:58;24.30;99.90
14737;DHT22;7459;53.590;10.062;2022-07-29T14:01:24;24.20;99.90
14737;DHT22;7459;53.590;10.062;2022-07-29T14:03:50;24.20;99.90
14737;DHT22;7459;53.590;10.062;2022-07-29T14:06:16;24.10;99.90
14737;DHT22;7459;53.590;10.062;2022-07-29T14:08:41;24.00;99.90
14737;DHT22;7459;53.590;10.062;2022-07-29T14:11:08;23.90;99.90
14737;DHT22;7459;53.590;10.062;2022-07-29T14:13:33;23.80;99.90
14737;DHT22;7459;53.590;10.062;2022-07-29T14:15:59;24.30;99.90
14737;DHT22;7459;53.590;10.062;2022-07-29T14:18:25;25.10;99.90
14737;DHT22;7459;53.590;10.062;2022-07-29T14:20:50;25.60;99.90
14737;DHT22;7459;53.590;10.062;2022-07-29T14:23:17;26.20;99.90
14737;DHT22;7459;53.590;10.062;2022-07-29T14:25:43;26.30;99.90
14737;DHT22;7459;53.590;10.062;2022-07-29T14:28:08;26.50;99.60
14737;DHT22;7459;53.590;10.062;2022-07-29T14:30:34;26.50;98.80
14737;DHT22;7459;53.590;10.062;2022-07-29T14:33:00;26.10;99.20
14737;DHT22;7459;53.590;10.062;2022-07-29T14:35:25;25.70;99.30
14737;DHT22;7459;53.590;10.062;2022-07-29T14:37:51;25.30;99.70
14737;DHT22;7459;53.590;10.062;2022-07-29T14:40:17;24.90;99.90
14737;DHT22;7459;53.590;10.062;2022-07-29T14:42:42;24.50;99.90
14737;DHT22;7459;53.590;10.062;2022-07-29T14:45:09;24.20;99.90
14737;DHT22;7459;53.590;10.062;2022-07-29T14:47:35;24.00;99.90
14737;DHT22;7459;53.590;10.062;2022-07-29T14:50:03;23.80;99.90
14737;DHT22;7459;53.590;10.062;2022-07-29T14:52:30;23.60;99.90
14737;DHT22;7459;53.590;10.062;2022-07-29T14:54:55;23.50;99.90
14737;DHT22;7459;53.590;10.062;2022-07-29T14:57:21;23.50;99.90
14737;DHT22;7459;53.590;10.062;2022-07-29T14:59:47;23.40;99.90
14737;DHT22;7459;53.590;10.062;2022-07-29T15:02:12;23.30;99.90
14737;DHT22;7459;53.590;10.062;2022-07-29T15:04:38;23.30;99.90
14737;DHT22;7459;53.590;10.062;2022-07-29T15:07:04;23.30;99.90
14737;DHT22;7459;53.590;10.062;2022-07-29T15:09:30;23.30;99.90
14737;DHT22;7459;53.590;10.062;2022-07-29T15:11:56;23.30;99.90
14737;DHT22;7459;53.590;10.062;2022-07-29T15:14:21;23.30;99.90
14737;DHT22;7459;53.590;10.062;2022-07-29T15:16:47;23.30;99.90
14737;DHT22;7459;53.590;10.062;2022-07-29T15:19:13;23.40;99.90
14737;DHT22;7459;53.590;10.062;2022-07-29T15:21:38;23.50;99.90
14737;DHT22;7459;53.590;10.062;2022-07-29T15:24:04;23.50;99.90
14737;DHT22;7459;53.590;10.062;2022-07-29T15:26:32;23.50;99.90
14737;DHT22;7459;53.590;10.062;2022-07-29T15:28:58;23.50;99.90
14737;DHT22;7459;53.590;10.062;2022-07-29T15:31:25;23.60;99.90
14737;DHT22;7459;53.590;10.062;2022-07-29T15:33:50;23.60;99.90
14737;DHT22;7459;53.590;10.062;2022-07-29T15:36:16;23.60;99.90
14737;DHT22;7459;53.590;10.062;2022-07-29T15:38:42;23.60;99.90
14737;DHT22;7459;53.590;10.062;2022-07-29T15:41:09;23.50;99.90
14737;DHT22;7459;53.590;10.062;2022-07-29T15:43:43;23.50;99.90
14737;DHT22;7459;53.590;10.062;2022-07-29T15:46:15;23.50;99.90
14737;DHT22;7459;53.590;10.062;2022-07-29T15:49:00;23.40;99.90
14737;DHT22;7459;53.590;10.062;2022-07-29T15:51:26;23.50;99.90
14737;DHT22;7459;53.590;10.062;2022-07-29T15:53:52;23.50;99.90
14737;DHT22;7459;53.590;10.062;2022-07-29T15:56:18;23.70;99.90
14737;DHT22;7459;53.590;10.062;2022-07-29T15:58:44;23.90;99.90
14737;DHT22;7459;53.590;10.062;2022-07-29T16:01:10;24.20;99.90
14737;DHT22;7459;53.590;10.062;2022-07-29T16:03:36;24.30;99.90
14737;DHT22;7459;53.590;10.062;2022-07-29T16:06:01;24.40;99.90
14737;DHT22;7459;53.590;10.062;2022-07-29T16:08:27;24.40;99.90
14737;DHT22;7459;53.590;10.062;2022-07-29T16:10:53;24.50;99.90
14737;DHT22;7459;53.590;10.062;2022-07-29T16:13:19;24.40;99.90
14737;DHT22;7459;53.590;10.062;2022-07-29T16:15:45;24.40;99.90
14737;DHT22;7459;53.590;10.062;2022-07-29T16:18:11;24.40;99.90
14737;DHT22;7459;53.590;10.062;2022-07-29T16:20:38;24.40;99.90